Time;durP1;ratioP1;P1;durP2;ratioP2;P2;SDS_P1;SDS_P2;PMS_P1;PMS_P2;Temp;Humidity;BMP_temperature;BMP_pressure;BME280_temperature;BME280_humidity;BME280_pressure;Samples;Min_cycle;Max_cycle;Signal;HPM_P1;HPM_P2
2023/07/31 00:00:19;;;;;;;0.90;0.70;;;23.90;67.00;;;;;;6292624;28;20052;-44
2023/07/31 00:03:20;;;;;;;1.25;0.90;;;24.10;67.40;;;;;;6310913;28;20041;-46
2023/07/31 00:06:27;;;;;;;1.33;1.00;;;24.20;67.70;;;;;;6308661;28;20025;-45
2023/07/31 00:09:28;;;;;;;1.70;0.93;;;24.40;67.70;;;;;;6307845;28;20036;-43
2023/07/31 00:12:30;;;;;;;1.50;0.90;;;24.10;67.80;;;;;;6310821;28;20033;-44
2023/07/31 00:15:32;;;;;;;1.83;0.82;;;24.00;67.40;;;;;;6311290;28;20069;-42
2023/07/31 00:18:33;;;;;;;1.30;0.80;;;24.00;67.90;;;;;;6313633;28;20048;-45
2023/07/31 00:21:35;;;;;;;1.85;1.40;;;24.00;67.60;;;;;;6313509;28;20047;-44
2023/07/31 00:24:36;;;;;;;1.67;1.00;;;23.90;67.80;;;;;;6313534;28;20043;-44
2023/07/31 00:27:44;;;;;;;1.35;1.05;;;24.20;67.80;;;;;;6311193;28;20104;-45
2023/07/31 00:30:46;;;;;;;2.03;0.80;;;24.20;67.90;;;;;;6307675;28;20028;-44
2023/07/31 00:33:47;;;;;;;1.42;0.90;;;25.00;68.50;;;;;;6307051;28;20076;-43
2023/07/31 00:36:51;;;;;;;1.98;1.10;;;24.00;68.10;;;;;;6269696;28;20044;-53
2023/07/31 00:39:53;;;;;;;1.40;1.02;;;24.00;68.30;;;;;;6268182;28;20032;-54
2023/07/31 00:42:56;;;;;;;1.42;1.10;;;23.40;68.00;;;;;;6267056;28;20117;-51
2023/07/31 00:45:58;;;;;;;1.70;1.00;;;24.00;68.20;;;;;;6264910;28;20040;-51
2023/07/31 00:49:02;;;;;;;2.30;1.13;;;23.70;68.10;;;;;;6269648;28;20090;-55
2023/07/31 00:52:07;;;;;;;1.00;0.80;;;23.90;68.80;;;;;;6269550;28;20039;-53
2023/07/31 00:55:13;;;;;;;2.08;1.10;;;23.60;68.60;;;;;;6265897;28;20044;-52
2023/07/31 00:58:15;;;;;;;1.05;0.80;;;23.60;68.40;;;;;;6267132;28;20036;-53
2023/07/31 01:01:16;;;;;;;1.60;1.20;;;24.00;68.70;;;;;;6266627;28;20089;-49
2023/07/31 01:04:19;;;;;;;1.42;1.00;;;24.00;68.40;;;;;;6265378;28;20037;-49
2023/07/31 01:07:26;;;;;;;1.70;1.10;;;23.90;68.50;;;;;;6266817;28;20040;-53
2023/07/31 01:10:35;;;;;;;2.28;1.15;;;24.00;68.50;;;;;;6266948;28;20044;-50
2023/07/31 01:13:37;;;;;;;2.28;1.25;;;24.10;68.60;;;;;;6266718;28;20036;-54
2023/07/31 01:16:43;;;;;;;1.98;1.08;;;23.90;68.80;;;;;;6267390;28;20032;-52
2023/07/31 01:19:47;;;;;;;3.75;1.27;;;23.70;65.40;;;;;;6267568;28;20139;-53
2023/07/31 01:23:27;;;;;;;1.85;1.10;;;24.00;68.70;;;;;;6267174;28;20046;-51
2023/07/31 01:26:33;;;;;;;1.88;1.17;;;24.00;68.80;;;;;;6253870;28;20049;-49
2023/07/31 01:29:44;;;;;;;2.92;0.90;;;24.10;69.40;;;;;;6250354;28;20064;-50
2023/07/31 01:32:49;;;;;;;1.45;0.95;;;23.70;69.20;;;;;;6250498;28;20107;-52
2023/07/31 01:35:56;;;;;;;1.23;0.90;;;24.00;68.90;;;;;;6266778;28;20044;-49
2023/07/31 01:39:02;;;;;;;1.65;1.30;;;24.00;69.00;;;;;;6265727;28;20041;-48
2023/07/31 01:42:04;;;;;;;1.75;1.10;;;24.50;69.50;;;;;;6229999;28;20060;-53
2023/07/31 01:45:07;;;;;;;1.40;1.02;;;24.00;69.60;;;;;;6264785;28;20501;-49
2023/07/31 01:48:11;;;;;;;1.80;1.10;;;24.00;69.20;;;;;;6265387;28;20048;-51
2023/07/31 01:51:13;;;;;;;1.58;0.98;;;23.90;69.40;;;;;;6265181;28;20086;-50
2023/07/31 01:54:14;;;;;;;1.33;0.90;;;23.50;69.00;;;;;;6264723;28;20404;-50
2023/07/31 01:57:16;;;;;;;1.17;0.85;;;23.80;69.40;;;;;;6262374;28;20037;-50
2023/07/31 02:00:18;;;;;;;1.45;1.05;;;24.00;69.50;;;;;;6256630;28;20093;-49
2023/07/31 02:03:19;;;;;;;1.35;1.00;;;24.00;69.60;;;;;;6266759;28;20844;-51
2023/07/31 02:06:22;;;;;;;1.10;0.90;;;24.00;69.40;;;;;;6265532;28;20044;-51
2023/07/31 02:09:23;;;;;;;1.30;1.00;;;23.90;69.60;;;;;;6263692;28;20483;-53
2023/07/31 02:12:30;;;;;;;1.65;0.90;;;23.80;69.50;;;;;;6267409;28;20043;-51
2023/07/31 02:15:32;;;;;;;1.20;0.90;;;24.00;69.60;;;;;;6246806;28;20041;-51
2023/07/31 02:18:33;;;;;;;1.48;1.20;;;23.70;69.20;;;;;;6248581;28;20504;-49
2023/07/31 02:21:36;;;;;;;1.48;0.90;;;23.80;69.70;;;;;;6266572;28;20033;-51
2023/07/31 02:24:38;;;;;;;1.60;1.02;;;23.50;70.00;;;;;;6265366;28;20033;-50
2023/07/31 02:27:40;;;;;;;1.23;0.95;;;23.70;69.70;;;;;;6266546;28;20406;-54
2023/07/31 02:30:45;;;;;;;1.55;0.90;;;23.80;69.10;;;;;;6267076;28;20504;-50
2023/07/31 02:33:49;;;;;;;2.20;1.38;;;24.00;70.10;;;;;;6231530;28;20041;-51
2023/07/31 02:36:51;;;;;;;2.15;0.98;;;23.10;69.10;;;;;;6263725;28;20040;-51
2023/07/31 02:39:53;;;;;;;2.15;0.98;;;23.90;70.00;;;;;;6264695;28;20039;-53
2023/07/31 02:42:55;;;;;;;1.30;1.00;;;23.90;70.00;;;;;;6266515;28;20044;-49
2023/07/31 02:45:56;;;;;;;1.40;1.13;;;23.90;70.00;;;;;;6264192;28;20424;-50
2023/07/31 02:48:59;;;;;;;1.60;1.10;;;23.90;69.80;;;;;;6262766;28;20044;-50
2023/07/31 02:52:00;;;;;;;1.10;0.90;;;23.50;69.90;;;;;;6265809;28;20123;-48
2023/07/31 02:55:02;;;;;;;1.35;0.88;;;24.00;70.00;;;;;;6264571;28;20097;-51
2023/07/31 02:58:04;;;;;;;1.40;1.00;;;23.50;69.80;;;;;;6264229;28;20958;-50
2023/07/31 03:01:06;;;;;;;1.30;1.00;;;23.90;70.10;;;;;;6265337;28;20044;-50
2023/07/31 03:04:07;;;;;;;1.35;0.98;;;23.90;70.20;;;;;;6263953;28;20290;-52
2023/07/31 03:07:09;;;;;;;1.30;0.98;;;23.90;70.20;;;;;;6265591;28;20047;-50
2023/07/31 03:10:13;;;;;;;1.60;1.10;;;23.80;70.80;;;;;;6264480;28;20241;-51
2023/07/31 03:13:16;;;;;;;1.33;0.95;;;24.00;68.70;;;;;;6264695;28;20115;-51
2023/07/31 03:16:18;;;;;;;1.00;0.85;;;23.80;70.30;;;;;;6263601;28;20068;-52
2023/07/31 03:19:20;;;;;;;1.63;1.10;;;23.90;69.10;;;;;;6266332;28;20158;-50
2023/07/31 03:22:22;;;;;;;1.35;0.80;;;23.80;70.30;;;;;;6268528;28;20099;-49
2023/07/31 03:25:23;;;;;;;1.75;1.40;;;23.50;70.20;;;;;;6270015;28;20032;-53
2023/07/31 03:28:26;;;;;;;1.35;1.00;;;23.90;71.00;;;;;;6267664;28;20036;-49
2023/07/31 03:31:28;;;;;;;1.38;0.90;;;23.80;70.40;;;;;;6251084;28;20048;-52
2023/07/31 03:34:31;;;;;;;1.10;0.90;;;23.90;70.90;;;;;;6268280;28;20032;-47
2023/07/31 03:37:34;;;;;;;1.65;1.10;;;23.40;70.30;;;;;;6267301;28;20047;-51
2023/07/31 03:40:42;;;;;;;1.50;0.98;;;23.80;70.50;;;;;;6267379;28;20479;-51
2023/07/31 03:43:46;;;;;;;1.38;1.00;;;23.90;70.70;;;;;;6267457;28;20474;-52
2023/07/31 03:46:49;;;;;;;1.10;0.80;;;23.80;71.00;;;;;;6250109;28;20423;-51
2023/07/31 03:49:51;;;;;;;1.60;1.02;;;23.80;71.10;;;;;;6268404;28;20047;-54
2023/07/31 03:52:53;;;;;;;1.20;0.80;;;23.70;70.70;;;;;;6267919;28;20431;-49
2023/07/31 03:55:57;;;;;;;1.98;1.13;;;23.80;70.80;;;;;;6267792;28;20037;-53
2023/07/31 03:59:00;;;;;;;1.38;1.02;;;23.80;70.80;;;;;;6267961;28;20486;-53
2023/07/31 04:02:01;;;;;;;1.50;0.98;;;23.10;70.50;;;;;;6267674;28;20044;-52
2023/07/31 04:05:03;;;;;;;0.90;0.80;;;23.80;70.90;;;;;;6267713;28;20049;-51
2023/07/31 04:08:04;;;;;;;1.33;0.93;;;23.90;70.70;;;;;;6269563;28;20036;-52
2023/07/31 04:11:06;;;;;;;1.67;1.02;;;23.90;70.90;;;;;;6267478;28;20032;-51
2023/07/31 04:14:08;;;;;;;1.60;1.10;;;23.90;70.80;;;;;;6268341;28;20032;-52
2023/07/31 04:17:10;;;;;;;0.75;0.68;;;23.90;70.80;;;;;;6267018;28;20415;-54
2023/07/31 04:20:13;;;;;;;2.10;1.05;;;23.60;70.50;;;;;;6268220;28;20065;-52
2023/07/31 04:23:15;;;;;;;1.35;1.20;;;23.40;70.60;;;;;;6267341;28;20361;-53
2023/07/31 04:26:16;;;;;;;1.08;0.85;;;23.70;70.90;;;;;;6267486;28;20045;-51
2023/07/31 04:29:18;;;;;;;1.55;0.95;;;23.80;71.10;;;;;;6265035;28;20040;-51
2023/07/31 04:32:20;;;;;;;1.33;0.95;;;23.80;71.00;;;;;;6267594;28;20041;-52
2023/07/31 04:35:22;;;;;;;1.00;0.85;;;23.80;71.70;;;;;;6265296;28;20384;-51
2023/07/31 04:38:24;;;;;;;1.08;0.77;;;23.70;71.20;;;;;;6266482;28;20040;-48
2023/07/31 04:41:26;;;;;;;1.25;0.80;;;23.80;71.60;;;;;;6265804;28;20087;-48
2023/07/31 04:44:28;;;;;;;1.10;0.77;;;23.60;71.20;;;;;;6267133;28;20046;-51
2023/07/31 04:47:29;;;;;;;1.30;0.90;;;23.80;71.40;;;;;;6266706;28;20359;-53
2023/07/31 04:50:31;;;;;;;1.45;0.90;;;23.70;71.40;;;;;;6266196;28;20434;-50
2023/07/31 04:53:33;;;;;;;1.88;1.00;;;23.90;72.10;;;;;;6265054;28;21002;-51
2023/07/31 04:56:35;;;;;;;1.40;0.85;;;23.60;89.20;;;;;;6265138;28;20051;-50
2023/07/31 04:59:37;;;;;;;1.85;1.20;;;22.50;71.00;;;;;;6265122;28;20037;-49
2023/07/31 05:02:38;;;;;;;1.33;1.00;;;23.70;71.30;;;;;;6265897;28;20041;-50
2023/07/31 05:05:40;;;;;;;1.35;0.90;;;23.80;71.80;;;;;;6264216;28;20388;-48
2023/07/31 05:08:41;;;;;;;1.50;1.00;;;23.80;72.10;;;;;;6263261;28;20036;-52
2023/07/31 05:11:43;;;;;;;;;;;23.90;71.80;;;;;;6266617;28;20029;-47
2023/07/31 05:14:47;;;;;;;1.50;0.88;;;23.80;72.00;;;;;;6265553;28;19981;-49
2023/07/31 05:17:48;;;;;;;1.20;1.00;;;23.70;71.70;;;;;;6264130;28;20036;-51
2023/07/31 05:20:50;;;;;;;1.55;0.90;;;23.90;72.20;;;;;;6264796;28;20112;-50
2023/07/31 05:23:52;;;;;;;1.50;1.00;;;23.40;71.80;;;;;;6265632;28;20044;-51
2023/07/31 05:26:53;;;;;;;;;;;23.80;72.00;;;;;;6266745;28;20042;-49
2023/07/31 05:29:55;;;;;;;1.27;0.80;;;23.90;72.20;;;;;;6267979;28;20476;-50
2023/07/31 05:32:59;;;;;;;1.33;0.90;;;24.10;71.90;;;;;;6265936;28;20037;-50
2023/07/31 05:36:01;;;;;;;1.17;0.85;;;23.60;72.70;;;;;;6264480;28;20462;-49
2023/07/31 05:39:06;;;;;;;1.48;0.98;;;23.80;72.30;;;;;;6266266;28;20725;-53
2023/07/31 05:42:10;;;;;;;1.48;0.90;;;23.70;72.10;;;;;;6265066;28;20114;-49
2023/07/31 05:45:13;;;;;;;1.02;0.90;;;23.80;72.30;;;;;;6262810;28;20154;-48
2023/07/31 05:48:14;;;;;;;1.70;1.10;;;23.70;72.10;;;;;;6246668;28;20044;-49
2023/07/31 05:51:16;;;;;;;1.25;0.90;;;23.30;72.00;;;;;;6263643;28;20043;-50
2023/07/31 05:54:18;;;;;;;1.45;0.80;;;23.70;72.30;;;;;;6263086;28;20237;-47
2023/07/31 05:57:20;;;;;;;1.73;0.70;;;23.80;72.40;;;;;;6260741;28;20044;-51
2023/07/31 06:00:22;;;;;;;1.75;0.73;;;23.80;73.10;;;;;;6261057;28;20045;-52
2023/07/31 06:03:23;;;;;;;1.38;1.05;;;23.20;72.10;;;;;;6261970;28;20583;-49
2023/07/31 06:06:25;;;;;;;1.33;0.95;;;23.70;72.50;;;;;;6261298;28;20097;-49
2023/07/31 06:09:27;;;;;;;1.70;0.77;;;23.70;72.40;;;;;;6264846;28;20535;-50
2023/07/31 06:12:29;;;;;;;1.35;0.77;;;23.70;72.40;;;;;;6263448;28;20040;-51
2023/07/31 06:15:35;;;;;;;2.22;0.98;;;23.70;71.80;;;;;;6234165;28;20048;-54
2023/07/31 06:18:37;;;;;;;1.13;0.73;;;23.70;72.30;;;;;;6264215;28;20082;-52
2023/07/31 06:21:39;;;;;;;0.93;0.73;;;23.80;72.20;;;;;;6264328;28;20040;-52
2023/07/31 06:24:40;;;;;;;1.67;1.08;;;24.50;72.80;;;;;;6261187;28;20033;-48
2023/07/31 06:27:43;;;;;;;0.98;0.88;;;23.80;72.50;;;;;;6258916;28;20124;-48
2023/07/31 06:30:45;;;;;;;1.42;0.90;;;23.40;72.40;;;;;;6257521;28;20036;-54
2023/07/31 06:33:46;;;;;;;1.70;1.00;;;23.80;72.20;;;;;;6249569;28;20037;-51
2023/07/31 06:36:48;;;;;;;1.83;0.98;;;23.80;72.60;;;;;;6261315;28;20041;-54
2023/07/31 06:39:51;;;;;;;3.05;0.95;;;23.70;72.40;;;;;;6238523;28;20049;-51
2023/07/31 06:42:55;;;;;;;1.75;1.00;;;23.60;73.10;;;;;;6231268;28;20037;-54
2023/07/31 06:45:57;;;;;;;2.55;1.20;;;23.80;72.90;;;;;;6262524;28;20122;-54
2023/07/31 06:48:58;;;;;;;1.70;0.95;;;23.70;73.30;;;;;;6262444;28;20866;-54
2023/07/31 06:52:01;;;;;;;2.80;1.02;;;23.30;72.80;;;;;;6249911;28;20047;-49
2023/07/31 06:55:04;;;;;;;2.15;1.30;;;23.70;73.30;;;;;;6261546;28;20040;-51
2023/07/31 06:58:05;;;;;;;1.73;1.02;;;23.70;73.20;;;;;;6245369;28;20656;-50
2023/07/31 07:01:07;;;;;;;1.45;1.15;;;23.60;74.00;;;;;;6233051;28;20037;-51
2023/07/31 07:04:13;;;;;;;1.80;1.27;;;23.50;73.50;;;;;;6246084;28;20649;-48
2023/07/31 07:07:15;;;;;;;3.88;0.93;;;23.70;74.10;;;;;;6264673;28;20484;-46
2023/07/31 07:10:16;;;;;;;2.80;1.52;;;23.30;73.20;;;;;;6266703;28;20230;-48
2023/07/31 07:13:18;;;;;;;3.28;1.10;;;23.60;73.80;;;;;;6260838;28;20036;-50
2023/07/31 07:16:20;;;;;;;2.95;0.90;;;23.60;74.10;;;;;;6263353;28;20098;-50
2023/07/31 07:19:22;;;;;;;2.88;1.13;;;23.70;73.90;;;;;;6266101;28;20079;-50
2023/07/31 07:22:23;;;;;;;3.28;1.50;;;23.60;74.20;;;;;;6266756;28;20601;-49
2023/07/31 07:25:28;;;;;;;3.70;1.50;;;23.30;74.00;;;;;;6262543;28;20150;-50
2023/07/31 07:28:29;;;;;;;3.22;1.48;;;23.70;73.40;;;;;;6228389;28;20036;-49
2023/07/31 07:31:32;;;;;;;3.45;1.70;;;23.60;75.10;;;;;;6259296;28;20687;-50
2023/07/31 07:34:34;;;;;;;4.32;1.52;;;23.50;85.00;;;;;;6266106;28;20040;-54
2023/07/31 07:37:36;;;;;;;5.47;2.15;;;23.50;74.00;;;;;;6273691;28;20043;-54
2023/07/31 07:40:39;;;;;;;4.22;1.42;;;23.60;74.10;;;;;;6265452;28;20039;-50
2023/07/31 07:43:43;;;;;;;3.53;1.75;;;23.60;73.90;;;;;;6259769;28;20032;-49
2023/07/31 07:46:45;;;;;;;3.58;1.60;;;23.50;73.90;;;;;;6262555;28;20036;-52
2023/07/31 07:49:46;;;;;;;2.42;1.20;;;22.60;73.30;;;;;;6267711;28;20047;-48
2023/07/31 07:52:54;;;;;;;2.58;1.20;;;23.60;73.80;;;;;;6265732;28;20060;-54
2023/07/31 07:55:55;;;;;;;2.42;1.30;;;24.10;74.30;;;;;;6261139;28;20041;-50
2023/07/31 07:58:57;;;;;;;2.92;1.33;;;;;;;;;;6260148;28;20040;-44
2023/07/31 08:09:56;;;;;;;3.42;1.25;;;23.10;92.20;;;;;;6436820;27;20831;-47
2023/07/31 08:12:58;;;;;;;3.60;1.60;;;23.40;78.80;;;;;;6412724;27;20461;-53
2023/07/31 08:16:00;;;;;;;1.67;1.38;;;;;;;;;;6413262;27;20061;-51
2023/07/31 08:19:46;;;;;;;3.15;1.25;;;23.20;75.10;;;;;;6439125;27;20112;-52
